sensor_id;sensor_type;location;lat;lon;timestamp;P1;durP1;ratioP1;P2;durP2;ratioP2
10637;SDS011;47007;49.252;8.904;2023-03-29T00:00:16;1.85;;;1.40;;
10637;SDS011;47007;49.252;8.904;2023-03-29T00:00:59;3.35;;;1.52;;
10637;SDS011;47007;49.252;8.904;2023-03-29T00:01:41;4.10;;;1.15;;
10637;SDS011;47007;49.252;8.904;2023-03-29T00:02:23;2.05;;;1.30;;
10637;SDS011;47007;49.252;8.904;2023-03-29T00:03:14;1.60;;;1.27;;
10637;SDS011;47007;49.252;8.904;2023-03-29T00:03:56;1.17;;;1.05;;
10637;SDS011;47007;49.252;8.904;2023-03-29T00:04:41;1.48;;;1.20;;
10637;SDS011;47007;49.252;8.904;2023-03-29T00:05:23;2.40;;;1.30;;
10637;SDS011;47007;49.252;8.904;2023-03-29T00:06:05;1.70;;;1.10;;
10637;SDS011;47007;49.252;8.904;2023-03-29T00:06:47;2.33;;;1.15;;
10637;SDS011;47007;49.252;8.904;2023-03-29T00:07:31;1.95;;;1.30;;
10637;SDS011;47007;49.252;8.904;2023-03-29T00:08:15;2.35;;;1.25;;
10637;SDS011;47007;49.252;8.904;2023-03-29T00:08:58;1.23;;;1.10;;
10637;SDS011;47007;49.252;8.904;2023-03-29T00:09:42;2.08;;;1.10;;
10637;SDS011;47007;49.252;8.904;2023-03-29T00:10:24;1.48;;;1.20;;
10637;SDS011;47007;49.252;8.904;2023-03-29T00:11:06;1.30;;;1.20;;
10637;SDS011;47007;49.252;8.904;2023-03-29T00:11:48;2.03;;;1.25;;
10637;SDS011;47007;49.252;8.904;2023-03-29T00:12:30;1.50;;;1.40;;
10637;SDS011;47007;49.252;8.904;2023-03-29T00:13:13;2.22;;;1.10;;
10637;SDS011;47007;49.252;8.904;2023-03-29T00:13:54;2.25;;;1.20;;
10637;SDS011;47007;49.252;8.904;2023-03-29T00:14:36;2.83;;;1.33;;
10637;SDS011;47007;49.252;8.904;2023-03-29T00:15:17;1.15;;;1.00;;
10637;SDS011;47007;49.252;8.904;2023-03-29T00:15:59;1.70;;;1.13;;
10637;SDS011;47007;49.252;8.904;2023-03-29T00:16:41;1.10;;;1.00;;
10637;SDS011;47007;49.252;8.904;2023-03-29T00:17:25;1.20;;;1.10;;
10637;SDS011;47007;49.252;8.904;2023-03-29T00:18:06;2.03;;;1.35;;
10637;SDS011;47007;49.252;8.904;2023-03-29T00:18:48;1.60;;;1.20;;
10637;SDS011;47007;49.252;8.904;2023-03-29T00:19:30;1.10;;;1.00;;
10637;SDS011;47007;49.252;8.904;2023-03-29T00:20:15;1.13;;;0.80;;
10637;SDS011;47007;49.252;8.904;2023-03-29T00:20:58;1.65;;;1.10;;
10637;SDS011;47007;49.252;8.904;2023-03-29T00:21:40;1.52;;;1.30;;
10637;SDS011;47007;49.252;8.904;2023-03-29T00:22:22;2.03;;;1.40;;
10637;SDS011;47007;49.252;8.904;2023-03-29T00:23:04;3.30;;;1.40;;
10637;SDS011;47007;49.252;8.904;2023-03-29T00:23:46;2.00;;;1.30;;
10637;SDS011;47007;49.252;8.904;2023-03-29T00:24:27;1.42;;;0.98;;
10637;SDS011;47007;49.252;8.904;2023-03-29T00:25:09;2.13;;;1.38;;
10637;SDS011;47007;49.252;8.904;2023-03-29T00:25:52;2.65;;;1.23;;
10637;SDS011;47007;49.252;8.904;2023-03-29T00:26:34;2.15;;;1.20;;
10637;SDS011;47007;49.252;8.904;2023-03-29T00:27:16;2.10;;;1.50;;
10637;SDS011;47007;49.252;8.904;2023-03-29T00:27:58;2.13;;;1.10;;
10637;SDS011;47007;49.252;8.904;2023-03-29T00:28:39;1.42;;;1.33;;
10637;SDS011;47007;49.252;8.904;2023-03-29T00:29:21;2.35;;;1.27;;
10637;SDS011;47007;49.252;8.904;2023-03-29T00:30:04;1.73;;;1.23;;
10637;SDS011;47007;49.252;8.904;2023-03-29T00:30:47;1.77;;;1.20;;
10637;SDS011;47007;49.252;8.904;2023-03-29T00:31:31;1.25;;;1.00;;
10637;SDS011;47007;49.252;8.904;2023-03-29T00:32:13;1.70;;;1.23;;
10637;SDS011;47007;49.252;8.904;2023-03-29T00:32:55;3.15;;;1.38;;
10637;SDS011;47007;49.252;8.904;2023-03-29T00:33:37;2.92;;;1.13;;
10637;SDS011;47007;49.252;8.904;2023-03-29T00:34:20;1.55;;;1.27;;
10637;SDS011;47007;49.252;8.904;2023-03-29T00:35:06;1.88;;;1.08;;
10637;SDS011;47007;49.252;8.904;2023-03-29T00:35:51;2.63;;;1.05;;
10637;SDS011;47007;49.252;8.904;2023-03-29T00:36:33;1.40;;;1.00;;
10637;SDS011;47007;49.252;8.904;2023-03-29T00:37:18;1.20;;;1.08;;
10637;SDS011;47007;49.252;8.904;2023-03-29T00:38:00;3.00;;;0.98;;
10637;SDS011;47007;49.252;8.904;2023-03-29T00:38:42;1.63;;;1.15;;
10637;SDS011;47007;49.252;8.904;2023-03-29T00:39:24;2.28;;;1.15;;
10637;SDS011;47007;49.252;8.904;2023-03-29T00:40:07;1.02;;;0.95;;
10637;SDS011;47007;49.252;8.904;2023-03-29T00:40:52;1.10;;;1.00;;
10637;SDS011;47007;49.252;8.904;2023-03-29T00:41:34;3.35;;;1.00;;
10637;SDS011;47007;49.252;8.904;2023-03-29T00:42:15;2.60;;;1.30;;
10637;SDS011;47007;49.252;8.904;2023-03-29T00:42:57;1.15;;;1.02;;
10637;SDS011;47007;49.252;8.904;2023-03-29T00:43:57;1.27;;;1.10;;
10637;SDS011;47007;49.252;8.904;2023-03-29T00:45:44;3.22;;;1.30;;
10637;SDS011;47007;49.252;8.904;2023-03-29T00:46:26;4.97;;;1.60;;
10637;SDS011;47007;49.252;8.904;2023-03-29T00:47:10;1.10;;;1.00;;
10637;SDS011;47007;49.252;8.904;2023-03-29T00:47:54;2.20;;;1.40;;
10637;SDS011;47007;49.252;8.904;2023-03-29T00:48:38;1.85;;;1.00;;
10637;SDS011;47007;49.252;8.904;2023-03-29T00:49:19;1.30;;;1.10;;
10637;SDS011;47007;49.252;8.904;2023-03-29T00:50:06;1.92;;;1.10;;
10637;SDS011;47007;49.252;8.904;2023-03-29T00:50:51;1.63;;;1.17;;
10637;SDS011;47007;49.252;8.904;2023-03-29T00:51:37;2.17;;;1.23;;
10637;SDS011;47007;49.252;8.904;2023-03-29T00:52:21;1.40;;;1.30;;
10637;SDS011;47007;49.252;8.904;2023-03-29T00:53:06;1.67;;;1.50;;
10637;SDS011;47007;49.252;8.904;2023-03-29T00:53:55;1.45;;;1.15;;
10637;SDS011;47007;49.252;8.904;2023-03-29T00:54:40;2.17;;;1.15;;
10637;SDS011;47007;49.252;8.904;2023-03-29T00:55:25;1.80;;;1.35;;
10637;SDS011;47007;49.252;8.904;2023-03-29T00:56:13;1.10;;;1.00;;
10637;SDS011;47007;49.252;8.904;2023-03-29T00:57:00;1.95;;;1.00;;
10637;SDS011;47007;49.252;8.904;2023-03-29T00:57:44;1.42;;;1.08;;
10637;SDS011;47007;49.252;8.904;2023-03-29T00:58:29;1.17;;;0.82;;
10637;SDS011;47007;49.252;8.904;2023-03-29T00:59:19;1.42;;;1.33;;
10637;SDS011;47007;49.252;8.904;2023-03-29T01:00:05;2.20;;;1.20;;
10637;SDS011;47007;49.252;8.904;2023-03-29T01:00:55;1.73;;;1.30;;
10637;SDS011;47007;49.252;8.904;2023-03-29T01:01:44;2.55;;;1.42;;
10637;SDS011;47007;49.252;8.904;2023-03-29T01:02:28;1.95;;;1.23;;
10637;SDS011;47007;49.252;8.904;2023-03-29T01:03:15;1.90;;;1.03;;
10637;SDS011;47007;49.252;8.904;2023-03-29T01:04:06;1.73;;;1.08;;
10637;SDS011;47007;49.252;8.904;2023-03-29T01:05:03;1.50;;;1.00;;
10637;SDS011;47007;49.252;8.904;2023-03-29T01:06:02;1.45;;;1.00;;
10637;SDS011;47007;49.252;8.904;2023-03-29T01:06:58;1.15;;;0.90;;
10637;SDS011;47007;49.252;8.904;2023-03-29T01:07:54;2.28;;;1.30;;
10637;SDS011;47007;49.252;8.904;2023-03-29T01:08:58;1.65;;;1.30;;
10637;SDS011;47007;49.252;8.904;2023-03-29T01:09:47;1.67;;;1.20;;
10637;SDS011;47007;49.252;8.904;2023-03-29T01:10:40;2.25;;;1.08;;
10637;SDS011;47007;49.252;8.904;2023-03-29T01:11:31;2.92;;;1.50;;
10637;SDS011;47007;49.252;8.904;2023-03-29T01:12:19;3.00;;;2.10;;
10637;SDS011;47007;49.252;8.904;2023-03-29T01:13:07;3.30;;;3.00;;
10637;SDS011;47007;49.252;8.904;2023-03-29T01:13:58;4.65;;;4.35;;
10637;SDS011;47007;49.252;8.904;2023-03-29T01:15:01;3.15;;;2.35;;
10637;SDS011;47007;49.252;8.904;2023-03-29T01:15:46;2.95;;;2.70;;
10637;SDS011;47007;49.252;8.904;2023-03-29T01:16:30;2.65;;;2.45;;
10637;SDS011;47007;49.252;8.904;2023-03-29T01:17:13;2.20;;;1.85;;
10637;SDS011;47007;49.252;8.904;2023-03-29T01:17:56;2.85;;;1.38;;
10637;SDS011;47007;49.252;8.904;2023-03-29T01:18:42;1.88;;;1.38;;
10637;SDS011;47007;49.252;8.904;2023-03-29T01:19:24;1.38;;;1.27;;
10637;SDS011;47007;49.252;8.904;2023-03-29T01:20:18;1.85;;;1.00;;
10637;SDS011;47007;49.252;8.904;2023-03-29T01:21:28;1.02;;;0.80;;
10637;SDS011;47007;49.252;8.904;2023-03-29T01:22:20;1.15;;;0.70;;
10637;SDS011;47007;49.252;8.904;2023-03-29T01:25:54;0.90;;;0.90;;
10637;SDS011;47007;49.252;8.904;2023-03-29T01:27:02;1.20;;;0.82;;
10637;SDS011;47007;49.252;8.904;2023-03-29T01:27:52;1.30;;;1.00;;
10637;SDS011;47007;49.252;8.904;2023-03-29T01:28:39;2.33;;;1.27;;
10637;SDS011;47007;49.252;8.904;2023-03-29T01:30:30;0.82;;;0.80;;
10637;SDS011;47007;49.252;8.904;2023-03-29T01:31:21;1.02;;;0.93;;
10637;SDS011;47007;49.252;8.904;2023-03-29T01:32:10;1.15;;;0.80;;
10637;SDS011;47007;49.252;8.904;2023-03-29T01:33:04;1.17;;;1.00;;
10637;SDS011;47007;49.252;8.904;2023-03-29T01:34:04;1.17;;;0.63;;
10637;SDS011;47007;49.252;8.904;2023-03-29T01:34:56;1.75;;;0.98;;
10637;SDS011;47007;49.252;8.904;2023-03-29T01:35:43;0.98;;;0.82;;
10637;SDS011;47007;49.252;8.904;2023-03-29T01:39:16;1.35;;;1.00;;
10637;SDS011;47007;49.252;8.904;2023-03-29T01:39:59;1.48;;;0.90;;
10637;SDS011;47007;49.252;8.904;2023-03-29T01:40:41;1.38;;;1.00;;
10637;SDS011;47007;49.252;8.904;2023-03-29T01:41:26;2.95;;;1.30;;
10637;SDS011;47007;49.252;8.904;2023-03-29T01:43:20;1.20;;;1.02;;
10637;SDS011;47007;49.252;8.904;2023-03-29T01:44:04;1.33;;;0.90;;
10637;SDS011;47007;49.252;8.904;2023-03-29T01:44:55;1.60;;;1.10;;
10637;SDS011;47007;49.252;8.904;2023-03-29T01:45:45;1.02;;;0.73;;
10637;SDS011;47007;49.252;8.904;2023-03-29T01:46:30;1.20;;;0.77;;
10637;SDS011;47007;49.252;8.904;2023-03-29T01:47:26;0.95;;;0.70;;
10637;SDS011;47007;49.252;8.904;2023-03-29T01:48:13;1.27;;;0.93;;
10637;SDS011;47007;49.252;8.904;2023-03-29T01:49:00;0.85;;;0.85;;
10637;SDS011;47007;49.252;8.904;2023-03-29T01:49:58;1.27;;;0.90;;
10637;SDS011;47007;49.252;8.904;2023-03-29T01:51:38;1.40;;;0.90;;
10637;SDS011;47007;49.252;8.904;2023-03-29T01:52:37;1.20;;;1.00;;
10637;SDS011;47007;49.252;8.904;2023-03-29T01:53:40;1.33;;;1.00;;
10637;SDS011;47007;49.252;8.904;2023-03-29T01:54:34;1.50;;;1.08;;
10637;SDS011;47007;49.252;8.904;2023-03-29T01:55:21;1.10;;;1.00;;
10637;SDS011;47007;49.252;8.904;2023-03-29T01:56:09;1.27;;;1.00;;
10637;SDS011;47007;49.252;8.904;2023-03-29T01:56:53;3.60;;;1.02;;
10637;SDS011;47007;49.252;8.904;2023-03-29T01:57:37;1.55;;;1.10;;
10637;SDS011;47007;49.252;8.904;2023-03-29T01:58:24;1.13;;;1.00;;
10637;SDS011;47007;49.252;8.904;2023-03-29T01:59:11;3.22;;;1.30;;
10637;SDS011;47007;49.252;8.904;2023-03-29T01:59:56;1.08;;;0.93;;
10637;SDS011;47007;49.252;8.904;2023-03-29T02:00:39;1.98;;;1.00;;
10637;SDS011;47007;49.252;8.904;2023-03-29T02:01:23;1.85;;;1.20;;
10637;SDS011;47007;49.252;8.904;2023-03-29T02:02:08;1.13;;;1.00;;
10637;SDS011;47007;49.252;8.904;2023-03-29T02:02:56;1.42;;;1.13;;
10637;SDS011;47007;49.252;8.904;2023-03-29T02:03:41;2.67;;;1.00;;
10637;SDS011;47007;49.252;8.904;2023-03-29T02:04:33;0.80;;;0.80;;
10637;SDS011;47007;49.252;8.904;2023-03-29T02:05:18;1.15;;;1.00;;
10637;SDS011;47007;49.252;8.904;2023-03-29T02:06:02;1.70;;;0.70;;
10637;SDS011;47007;49.252;8.904;2023-03-29T02:06:45;1.15;;;0.70;;
10637;SDS011;47007;49.252;8.904;2023-03-29T02:07:28;1.88;;;0.82;;
10637;SDS011;47007;49.252;8.904;2023-03-29T02:08:12;1.05;;;0.85;;
10637;SDS011;47007;49.252;8.904;2023-03-29T02:08:56;0.95;;;0.82;;
10637;SDS011;47007;49.252;8.904;2023-03-29T02:09:39;1.73;;;0.80;;
10637;SDS011;47007;49.252;8.904;2023-03-29T02:10:23;1.38;;;1.00;;
10637;SDS011;47007;49.252;8.904;2023-03-29T02:11:05;0.80;;;0.77;;
10637;SDS011;47007;49.252;8.904;2023-03-29T02:11:48;0.98;;;0.70;;
10637;SDS011;47007;49.252;8.904;2023-03-29T02:12:31;0.93;;;0.70;;
10637;SDS011;47007;49.252;8.904;2023-03-29T02:13:15;0.80;;;0.80;;
10637;SDS011;47007;49.252;8.904;2023-03-29T02:13:58;1.10;;;1.00;;
10637;SDS011;47007;49.252;8.904;2023-03-29T02:14:40;0.88;;;0.80;;
10637;SDS011;47007;49.252;8.904;2023-03-29T02:15:21;0.95;;;0.63;;
10637;SDS011;47007;49.252;8.904;2023-03-29T02:16:07;0.63;;;0.63;;
10637;SDS011;47007;49.252;8.904;2023-03-29T02:16:53;2.38;;;0.82;;
10637;SDS011;47007;49.252;8.904;2023-03-29T02:17:34;1.73;;;0.90;;
10637;SDS011;47007;49.252;8.904;2023-03-29T02:18:17;1.10;;;0.80;;
10637;SDS011;47007;49.252;8.904;2023-03-29T02:19:00;0.70;;;0.70;;
10637;SDS011;47007;49.252;8.904;2023-03-29T02:19:43;1.02;;;0.70;;
10637;SDS011;47007;49.252;8.904;2023-03-29T02:20:32;0.85;;;0.80;;
10637;SDS011;47007;49.252;8.904;2023-03-29T02:21:29;1.10;;;0.80;;
10637;SDS011;47007;49.252;8.904;2023-03-29T02:22:18;0.60;;;0.60;;
10637;SDS011;47007;49.252;8.904;2023-03-29T02:23:39;0.60;;;0.60;;
10637;SDS011;47007;49.252;8.904;2023-03-29T02:24:18;0.77;;;0.70;;
10637;SDS011;47007;49.252;8.904;2023-03-29T02:25:02;1.02;;;0.80;;
10637;SDS011;47007;49.252;8.904;2023-03-29T02:25:47;0.90;;;0.75;;
10637;SDS011;47007;49.252;8.904;2023-03-29T02:26:34;1.52;;;0.85;;
10637;SDS011;47007;49.252;8.904;2023-03-29T02:27:16;0.82;;;0.60;;
10637;SDS011;47007;49.252;8.904;2023-03-29T02:27:58;0.80;;;0.80;;
10637;SDS011;47007;49.252;8.904;2023-03-29T02:28:40;0.82;;;0.60;;
10637;SDS011;47007;49.252;8.904;2023-03-29T02:29:23;1.10;;;0.73;;
10637;SDS011;47007;49.252;8.904;2023-03-29T02:30:07;1.48;;;0.80;;
10637;SDS011;47007;49.252;8.904;2023-03-29T02:31:11;1.10;;;1.00;;
10637;SDS011;47007;49.252;8.904;2023-03-29T02:32:08;0.82;;;0.63;;
10637;SDS011;47007;49.252;8.904;2023-03-29T02:32:57;0.90;;;0.60;;
10637;SDS011;47007;49.252;8.904;2023-03-29T02:33:57;1.15;;;0.80;;
10637;SDS011;47007;49.252;8.904;2023-03-29T02:34:46;1.70;;;0.60;;
10637;SDS011;47007;49.252;8.904;2023-03-29T02:35:46;0.50;;;0.50;;
10637;SDS011;47007;49.252;8.904;2023-03-29T02:36:38;0.60;;;0.50;;
10637;SDS011;47007;49.252;8.904;2023-03-29T02:37:23;1.30;;;0.50;;
10637;SDS011;47007;49.252;8.904;2023-03-29T02:38:10;0.90;;;0.75;;
10637;SDS011;47007;49.252;8.904;2023-03-29T02:38:55;0.80;;;0.80;;
10637;SDS011;47007;49.252;8.904;2023-03-29T02:39:40;0.95;;;0.60;;
10637;SDS011;47007;49.252;8.904;2023-03-29T02:40:22;1.75;;;0.70;;
10637;SDS011;47007;49.252;8.904;2023-03-29T02:41:06;0.50;;;0.50;;
10637;SDS011;47007;49.252;8.904;2023-03-29T02:41:49;1.27;;;0.63;;
10637;SDS011;47007;49.252;8.904;2023-03-29T02:42:32;1.58;;;0.68;;
10637;SDS011;47007;49.252;8.904;2023-03-29T02:43:15;0.80;;;0.77;;
10637;SDS011;47007;49.252;8.904;2023-03-29T02:43:57;0.90;;;0.60;;
10637;SDS011;47007;49.252;8.904;2023-03-29T02:44:42;0.57;;;0.55;;
10637;SDS011;47007;49.252;8.904;2023-03-29T02:45:25;0.73;;;0.55;;
10637;SDS011;47007;49.252;8.904;2023-03-29T02:46:08;0.70;;;0.70;;
10637;SDS011;47007;49.252;8.904;2023-03-29T02:46:56;0.88;;;0.70;;
10637;SDS011;47007;49.252;8.904;2023-03-29T02:47:47;0.70;;;0.65;;
10637;SDS011;47007;49.252;8.904;2023-03-29T02:48:32;0.50;;;0.50;;
10637;SDS011;47007;49.252;8.904;2023-03-29T02:49:17;0.85;;;0.60;;
10637;SDS011;47007;49.252;8.904;2023-03-29T02:49:59;0.63;;;0.63;;
10637;SDS011;47007;49.252;8.904;2023-03-29T02:50:42;0.90;;;0.60;;
10637;SDS011;47007;49.252;8.904;2023-03-29T02:51:28;0.55;;;0.50;;
10637;SDS011;47007;49.252;8.904;2023-03-29T02:52:15;1.10;;;0.80;;
10637;SDS011;47007;49.252;8.904;2023-03-29T02:53:04;0.80;;;0.70;;
10637;SDS011;47007;49.252;8.904;2023-03-29T02:53:51;1.10;;;0.70;;
10637;SDS011;47007;49.252;8.904;2023-03-29T02:54:40;0.60;;;0.50;;
10637;SDS011;47007;49.252;8.904;2023-03-29T02:55:25;1.40;;;0.70;;
10637;SDS011;47007;49.252;8.904;2023-03-29T02:56:15;1.20;;;0.73;;
10637;SDS011;47007;49.252;8.904;2023-03-29T02:57:00;1.48;;;0.80;;
10637;SDS011;47007;49.252;8.904;2023-03-29T02:57:47;1.52;;;0.70;;
10637;SDS011;47007;49.252;8.904;2023-03-29T02:58:28;2.50;;;0.90;;
10637;SDS011;47007;49.252;8.904;2023-03-29T02:59:12;0.85;;;0.75;;
10637;SDS011;47007;49.252;8.904;2023-03-29T02:59:55;0.93;;;0.60;;
10637;SDS011;47007;49.252;8.904;2023-03-29T03:00:40;0.75;;;0.75;;
10637;SDS011;47007;49.252;8.904;2023-03-29T03:01:25;1.00;;;0.80;;
10637;SDS011;47007;49.252;8.904;2023-03-29T03:02:07;1.10;;;0.77;;
10637;SDS011;47007;49.252;8.904;2023-03-29T03:02:48;1.30;;;0.60;;
10637;SDS011;47007;49.252;8.904;2023-03-29T03:03:32;0.75;;;0.75;;
10637;SDS011;47007;49.252;8.904;2023-03-29T03:04:16;0.70;;;0.70;;
10637;SDS011;47007;49.252;8.904;2023-03-29T03:04:58;0.98;;;0.60;;
10637;SDS011;47007;49.252;8.904;2023-03-29T03:05:41;1.02;;;0.73;;
10637;SDS011;47007;49.252;8.904;2023-03-29T03:06:23;1.50;;;0.70;;
10637;SDS011;47007;49.252;8.904;2023-03-29T03:07:04;0.52;;;0.52;;
10637;SDS011;47007;49.252;8.904;2023-03-29T03:07:46;1.27;;;0.80;;
10637;SDS011;47007;49.252;8.904;2023-03-29T03:08:28;0.85;;;0.85;;
10637;SDS011;47007;49.252;8.904;2023-03-29T03:09:10;1.17;;;1.00;;
10637;SDS011;47007;49.252;8.904;2023-03-29T03:09:54;1.98;;;0.80;;
10637;SDS011;47007;49.252;8.904;2023-03-29T03:10:37;3.50;;;0.90;;
10637;SDS011;47007;49.252;8.904;2023-03-29T03:11:19;1.08;;;0.70;;
10637;SDS011;47007;49.252;8.904;2023-03-29T03:12:01;1.08;;;0.80;;
10637;SDS011;47007;49.252;8.904;2023-03-29T03:12:43;1.48;;;1.38;;
10637;SDS011;47007;49.252;8.904;2023-03-29T03:13:25;1.42;;;1.20;;
10637;SDS011;47007;49.252;8.904;2023-03-29T03:14:07;1.20;;;1.10;;
10637;SDS011;47007;49.252;8.904;2023-03-29T03:14:49;0.80;;;0.73;;
10637;SDS011;47007;49.252;8.904;2023-03-29T03:15:31;0.90;;;0.73;;
10637;SDS011;47007;49.252;8.904;2023-03-29T03:16:16;0.80;;;0.80;;
10637;SDS011;47007;49.252;8.904;2023-03-29T03:17:01;0.70;;;0.70;;
10637;SDS011;47007;49.252;8.904;2023-03-29T03:17:45;0.70;;;0.70;;
10637;SDS011;47007;49.252;8.904;2023-03-29T03:18:27;0.80;;;0.80;;
10637;SDS011;47007;49.252;8.904;2023-03-29T03:19:09;2.25;;;1.17;;
10637;SDS011;47007;49.252;8.904;2023-03-29T03:19:51;1.35;;;1.00;;
10637;SDS011;47007;49.252;8.904;2023-03-29T03:20:34;0.88;;;0.80;;
10637;SDS011;47007;49.252;8.904;2023-03-29T03:21:16;1.70;;;0.80;;
10637;SDS011;47007;49.252;8.904;2023-03-29T03:21:59;1.17;;;0.90;;
10637;SDS011;47007;49.252;8.904;2023-03-29T03:22:41;0.98;;;0.90;;
10637;SDS011;47007;49.252;8.904;2023-03-29T03:23:26;2.72;;;1.13;;
10637;SDS011;47007;49.252;8.904;2023-03-29T03:24:09;1.05;;;0.90;;
10637;SDS011;47007;49.252;8.904;2023-03-29T03:24:50;1.50;;;0.70;;
10637;SDS011;47007;49.252;8.904;2023-03-29T03:25:32;0.80;;;0.80;;
10637;SDS011;47007;49.252;8.904;2023-03-29T03:26:15;0.77;;;0.77;;
10637;SDS011;47007;49.252;8.904;2023-03-29T03:26:58;1.02;;;0.90;;
10637;SDS011;47007;49.252;8.904;2023-03-29T03:27:43;0.80;;;0.73;;
10637;SDS011;47007;49.252;8.904;2023-03-29T03:28:25;1.50;;;0.98;;
10637;SDS011;47007;49.252;8.904;2023-03-29T03:29:08;0.95;;;0.88;;
10637;SDS011;47007;49.252;8.904;2023-03-29T03:30:16;1.63;;;1.17;;
10637;SDS011;47007;49.252;8.904;2023-03-29T03:31:21;1.20;;;1.10;;
10637;SDS011;47007;49.252;8.904;2023-03-29T03:32:23;1.38;;;1.08;;
10637;SDS011;47007;49.252;8.904;2023-03-29T03:33:17;4.03;;;1.67;;
10637;SDS011;47007;49.252;8.904;2023-03-29T03:34:29;1.38;;;1.27;;
10637;SDS011;47007;49.252;8.904;2023-03-29T03:35:12;1.58;;;1.30;;
10637;SDS011;47007;49.252;8.904;2023-03-29T03:35:54;1.50;;;1.20;;
10637;SDS011;47007;49.252;8.904;2023-03-29T03:36:48;1.63;;;1.08;;
10637;SDS011;47007;49.252;8.904;2023-03-29T03:37:30;1.58;;;1.10;;
10637;SDS011;47007;49.252;8.904;2023-03-29T03:38:13;1.00;;;1.00;;
10637;SDS011;47007;49.252;8.904;2023-03-29T03:38:56;2.08;;;1.10;;
10637;SDS011;47007;49.252;8.904;2023-03-29T03:39:38;1.35;;;1.00;;
10637;SDS011;47007;49.252;8.904;2023-03-29T03:40:22;2.03;;;1.20;;
10637;SDS011;47007;49.252;8.904;2023-03-29T03:41:07;1.70;;;1.27;;
10637;SDS011;47007;49.252;8.904;2023-03-29T03:41:49;1.40;;;1.30;;
10637;SDS011;47007;49.252;8.904;2023-03-29T03:42:32;1.73;;;1.40;;
10637;SDS011;47007;49.252;8.904;2023-03-29T03:43:14;1.42;;;1.25;;
10637;SDS011;47007;49.252;8.904;2023-03-29T03:43:58;1.52;;;1.42;;
10637;SDS011;47007;49.252;8.904;2023-03-29T03:44:40;1.48;;;1.27;;
10637;SDS011;47007;49.252;8.904;2023-03-29T03:45:45;1.40;;;1.10;;
10637;SDS011;47007;49.252;8.904;2023-03-29T03:46:34;1.30;;;1.20;;
10637;SDS011;47007;49.252;8.904;2023-03-29T03:47:18;1.08;;;1.00;;
10637;SDS011;47007;49.252;8.904;2023-03-29T03:48:00;0.95;;;0.88;;
10637;SDS011;47007;49.252;8.904;2023-03-29T03:48:54;0.90;;;0.90;;
10637;SDS011;47007;49.252;8.904;2023-03-29T03:49:42;1.08;;;1.00;;
10637;SDS011;47007;49.252;8.904;2023-03-29T03:50:25;1.13;;;1.00;;
10637;SDS011;47007;49.252;8.904;2023-03-29T03:51:07;0.98;;;0.98;;
10637;SDS011;47007;49.252;8.904;2023-03-29T03:51:52;1.13;;;0.90;;
10637;SDS011;47007;49.252;8.904;2023-03-29T03:52:34;1.60;;;1.33;;
10637;SDS011;47007;49.252;8.904;2023-03-29T03:53:16;1.42;;;1.33;;
10637;SDS011;47007;49.252;8.904;2023-03-29T03:54:37;1.48;;;1.38;;
10637;SDS011;47007;49.252;8.904;2023-03-29T03:55:48;1.45;;;1.13;;
10637;SDS011;47007;49.252;8.904;2023-03-29T03:56:35;1.10;;;1.00;;
10637;SDS011;47007;49.252;8.904;2023-03-29T03:57:17;1.10;;;0.73;;
10637;SDS011;47007;49.252;8.904;2023-03-29T03:58:04;1.58;;;1.00;;
10637;SDS011;47007;49.252;8.904;2023-03-29T03:58:46;1.75;;;0.95;;
10637;SDS011;47007;49.252;8.904;2023-03-29T03:59:30;0.90;;;0.90;;
10637;SDS011;47007;49.252;8.904;2023-03-29T04:00:22;1.23;;;1.00;;
10637;SDS011;47007;49.252;8.904;2023-03-29T04:01:26;1.45;;;1.10;;
10637;SDS011;47007;49.252;8.904;2023-03-29T04:02:28;1.10;;;1.00;;
10637;SDS011;47007;49.252;8.904;2023-03-29T04:03:11;1.80;;;1.13;;
10637;SDS011;47007;49.252;8.904;2023-03-29T04:03:54;1.17;;;0.90;;
10637;SDS011;47007;49.252;8.904;2023-03-29T04:04:37;1.58;;;0.98;;
10637;SDS011;47007;49.252;8.904;2023-03-29T04:05:31;1.35;;;1.00;;
10637;SDS011;47007;49.252;8.904;2023-03-29T04:06:14;1.00;;;0.90;;
10637;SDS011;47007;49.252;8.904;2023-03-29T04:07:25;1.33;;;1.17;;
10637;SDS011;47007;49.252;8.904;2023-03-29T04:08:39;1.30;;;1.20;;
10637;SDS011;47007;49.252;8.904;2023-03-29T04:09:32;1.27;;;1.15;;
10637;SDS011;47007;49.252;8.904;2023-03-29T04:10:37;1.38;;;1.23;;
10637;SDS011;47007;49.252;8.904;2023-03-29T04:11:24;9.30;;;5.20;;
10637;SDS011;47007;49.252;8.904;2023-03-29T04:12:06;3.33;;;2.83;;
10637;SDS011;47007;49.252;8.904;2023-03-29T04:12:52;2.67;;;2.42;;
10637;SDS011;47007;49.252;8.904;2023-03-29T04:13:34;2.38;;;1.75;;
10637;SDS011;47007;49.252;8.904;2023-03-29T04:14:33;2.75;;;1.52;;
10637;SDS011;47007;49.252;8.904;2023-03-29T04:15:45;1.67;;;1.58;;
10637;SDS011;47007;49.252;8.904;2023-03-29T04:16:30;1.95;;;1.67;;
10637;SDS011;47007;49.252;8.904;2023-03-29T04:17:22;2.40;;;1.80;;
10637;SDS011;47007;49.252;8.904;2023-03-29T04:18:04;1.83;;;1.73;;
10637;SDS011;47007;49.252;8.904;2023-03-29T04:18:54;1.95;;;1.67;;
10637;SDS011;47007;49.252;8.904;2023-03-29T04:19:36;1.70;;;1.60;;
10637;SDS011;47007;49.252;8.904;2023-03-29T04:20:18;2.38;;;1.88;;
10637;SDS011;47007;49.252;8.904;2023-03-29T04:21:00;2.55;;;1.75;;
10637;SDS011;47007;49.252;8.904;2023-03-29T04:21:46;2.45;;;2.00;;
10637;SDS011;47007;49.252;8.904;2023-03-29T04:22:29;2.50;;;2.15;;
10637;SDS011;47007;49.252;8.904;2023-03-29T04:23:12;3.17;;;2.40;;
10637;SDS011;47007;49.252;8.904;2023-03-29T04:23:56;3.53;;;2.47;;
10637;SDS011;47007;49.252;8.904;2023-03-29T04:24:38;2.92;;;2.60;;
10637;SDS011;47007;49.252;8.904;2023-03-29T04:25:52;2.88;;;2.30;;
10637;SDS011;47007;49.252;8.904;2023-03-29T04:26:55;2.75;;;1.85;;
10637;SDS011;47007;49.252;8.904;2023-03-29T04:27:38;2.13;;;1.92;;
10637;SDS011;47007;49.252;8.904;2023-03-29T04:28:28;2.47;;;2.20;;
10637;SDS011;47007;49.252;8.904;2023-03-29T04:29:27;2.83;;;2.53;;
10637;SDS011;47007;49.252;8.904;2023-03-29T04:30:22;2.55;;;2.35;;
10637;SDS011;47007;49.252;8.904;2023-03-29T04:31:13;2.92;;;2.63;;
10637;SDS011;47007;49.252;8.904;2023-03-29T04:32:10;2.28;;;2.08;;
10637;SDS011;47007;49.252;8.904;2023-03-29T04:33:09;2.05;;;1.92;;
10637;SDS011;47007;49.252;8.904;2023-03-29T04:33:53;2.55;;;1.60;;
10637;SDS011;47007;49.252;8.904;2023-03-29T04:34:35;1.63;;;1.52;;
10637;SDS011;47007;49.252;8.904;2023-03-29T04:35:19;2.88;;;1.73;;
10637;SDS011;47007;49.252;8.904;2023-03-29T04:36:00;3.88;;;1.77;;
10637;SDS011;47007;49.252;8.904;2023-03-29T04:36:44;1.40;;;1.30;;
10637;SDS011;47007;49.252;8.904;2023-03-29T04:37:32;3.08;;;1.80;;
10637;SDS011;47007;49.252;8.904;2023-03-29T04:38:15;2.40;;;1.58;;
10637;SDS011;47007;49.252;8.904;2023-03-29T04:38:59;1.92;;;1.52;;
10637;SDS011;47007;49.252;8.904;2023-03-29T04:39:42;1.60;;;1.40;;
10637;SDS011;47007;49.252;8.904;2023-03-29T04:40:26;1.48;;;1.38;;
10637;SDS011;47007;49.252;8.904;2023-03-29T04:41:41;1.77;;;1.23;;
10637;SDS011;47007;49.252;8.904;2023-03-29T04:42:32;1.48;;;1.38;;
10637;SDS011;47007;49.252;8.904;2023-03-29T04:43:14;1.50;;;1.40;;
10637;SDS011;47007;49.252;8.904;2023-03-29T04:44:07;2.67;;;1.67;;
10637;SDS011;47007;49.252;8.904;2023-03-29T04:44:48;3.35;;;1.50;;
10637;SDS011;47007;49.252;8.904;2023-03-29T04:45:37;1.70;;;1.60;;
10637;SDS011;47007;49.252;8.904;2023-03-29T04:46:29;2.25;;;2.15;;
10637;SDS011;47007;49.252;8.904;2023-03-29T04:47:22;2.42;;;2.22;;
10637;SDS011;47007;49.252;8.904;2023-03-29T04:48:09;3.75;;;2.60;;
10637;SDS011;47007;49.252;8.904;2023-03-29T04:48:54;2.60;;;2.40;;
10637;SDS011;47007;49.252;8.904;2023-03-29T04:49:45;3.47;;;2.83;;
10637;SDS011;47007;49.252;8.904;2023-03-29T04:50:34;2.70;;;2.50;;
10637;SDS011;47007;49.252;8.904;2023-03-29T04:51:17;3.15;;;2.70;;
10637;SDS011;47007;49.252;8.904;2023-03-29T04:51:59;3.53;;;3.22;;